createdAt,value
2022-11-22T00:00:05.442Z,95178.34
2022-11-22T00:02:31.772Z,95177.84
2022-11-22T00:04:58.062Z,95175.50
2022-11-22T00:07:24.380Z,95172.59
2022-11-22T00:09:50.655Z,95176.31
2022-11-22T00:12:16.881Z,95177.91
2022-11-22T00:14:43.149Z,95179.00
2022-11-22T00:17:09.397Z,95180.59
2022-11-22T00:19:35.674Z,95180.06
2022-11-22T00:22:01.948Z,95176.31
2022-11-22T00:24:28.204Z,95183.53
2022-11-22T00:26:54.485Z,95181.94
2022-11-22T00:29:20.745Z,95185.41
2022-11-22T00:31:46.985Z,95187.56
2022-11-22T00:34:13.250Z,95188.03
2022-11-22T00:36:39.523Z,95186.97
2022-11-22T00:39:05.780Z,95188.00
2022-11-22T00:41:32.016Z,95187.94
2022-11-22T00:43:58.284Z,95188.50
2022-11-22T00:46:24.533Z,95195.44
2022-11-22T00:48:50.775Z,95191.22
2022-11-22T00:51:17.028Z,95195.19
2022-11-22T00:53:43.286Z,95202.16
2022-11-22T00:56:09.537Z,95205.91
2022-11-22T00:58:35.817Z,95197.94
2022-11-22T01:01:02.199Z,95204.34
2022-11-22T01:03:28.501Z,95199.56
2022-11-22T01:05:54.742Z,95203.69
2022-11-22T01:08:20.991Z,95208.78
2022-11-22T01:10:47.240Z,95209.38
2022-11-22T01:13:13.479Z,95215.50
2022-11-22T01:15:39.734Z,95223.19
2022-11-22T01:18:05.991Z,95225.84
2022-11-22T01:20:32.230Z,95236.00
2022-11-22T01:22:58.488Z,95243.78
2022-11-22T01:25:24.717Z,95242.16
2022-11-22T01:27:50.976Z,95248.28
2022-11-22T01:30:17.245Z,95249.69
2022-11-22T01:32:43.500Z,95256.56
2022-11-22T01:35:10.709Z,95253.34
2022-11-22T01:37:37.096Z,95253.38
2022-11-22T01:40:03.337Z,95258.16
2022-11-22T01:42:29.593Z,95250.44
2022-11-22T01:44:55.856Z,95242.72
2022-11-22T01:47:22.086Z,95250.44
2022-11-22T01:49:48.341Z,95241.66
2022-11-22T01:52:14.578Z,95235.28
2022-11-22T01:54:40.863Z,95237.16
2022-11-22T01:57:07.100Z,95232.38
2022-11-22T01:59:33.379Z,95233.22
2022-11-22T02:01:59.617Z,95247.09
2022-11-22T02:04:25.872Z,95237.25
2022-11-22T02:06:52.124Z,95242.31
2022-11-22T02:09:18.387Z,95224.19
2022-11-22T02:11:44.640Z,95229.47
2022-11-22T02:14:10.873Z,95221.22
2022-11-22T02:16:37.148Z,95228.91
2022-11-22T02:19:03.409Z,95234.00
2022-11-22T02:21:29.657Z,95235.81
2022-11-22T02:23:55.889Z,95233.44
2022-11-22T02:26:22.137Z,95236.19
2022-11-22T02:28:48.369Z,95234.06
2022-11-22T02:31:14.648Z,95242.84
2022-11-22T02:33:40.896Z,95243.41
2022-11-22T02:36:07.168Z,95249.78
2022-11-22T02:38:33.413Z,95257.84
2022-11-22T02:40:59.674Z,95264.75
2022-11-22T02:43:25.954Z,95263.19
2022-11-22T02:45:52.216Z,95264.25
2022-11-22T02:48:18.507Z,95262.38
2022-11-22T02:50:44.870Z,95261.06
2022-11-22T02:53:11.120Z,95254.69
2022-11-22T02:55:37.383Z,95254.41
2022-11-22T02:58:03.645Z,95256.81
2022-11-22T03:00:29.909Z,95257.06
2022-11-22T03:02:56.166Z,95260.25
2022-11-22T03:05:22.405Z,95260.53
2022-11-22T03:07:48.688Z,95250.91
2022-11-22T03:10:14.990Z,95254.66
2022-11-22T03:12:41.251Z,95256.78
2022-11-22T03:15:07.505Z,95257.31
2022-11-22T03:17:33.757Z,95267.44
2022-11-22T03:20:00.010Z,95269.03
2022-11-22T03:22:26.314Z,95260.75
2022-11-22T03:24:52.569Z,95255.44
2022-11-22T03:27:18.829Z,95251.44
2022-11-22T03:29:45.096Z,95251.16
2022-11-22T03:32:11.334Z,95258.88
2022-11-22T03:34:37.565Z,95248.22
2022-11-22T03:37:03.817Z,95246.63
2022-11-22T03:39:30.318Z,95239.97
2022-11-22T03:41:56.742Z,95243.72
2022-11-22T03:44:23.001Z,95244.50
2022-11-22T03:46:49.259Z,95247.19
2022-11-22T03:49:15.525Z,95261.56
2022-11-22T03:51:41.769Z,95256.75
2022-11-22T03:54:08.006Z,95246.91
2022-11-22T03:56:34.253Z,95255.19
2022-11-22T03:59:00.520Z,95252.78
2022-11-22T04:01:26.856Z,95257.31
2022-11-22T04:03:53.133Z,95255.44
2022-11-22T04:06:19.378Z,95264.50
2022-11-22T04:08:45.692Z,95262.13
2022-11-22T04:11:11.954Z,95259.44
2022-11-22T04:13:38.202Z,95259.72
2022-11-22T04:16:04.435Z,95263.44
2022-11-22T04:18:30.702Z,95256.25
2022-11-22T04:20:56.967Z,95262.66
2022-11-22T04:23:23.199Z,95267.72
2022-11-22T04:25:49.454Z,95266.91
2022-11-22T04:28:15.708Z,95266.13
2022-11-22T04:30:41.968Z,95271.72
2022-11-22T04:33:08.217Z,95289.53
2022-11-22T04:35:34.469Z,95298.84
2022-11-22T04:38:00.739Z,95283.13
2022-11-22T04:40:26.989Z,95284.72
2022-11-22T04:42:53.236Z,95298.56
2022-11-22T04:45:19.501Z,95296.13
2022-11-22T04:47:50.139Z,95286.59
2022-11-22T04:50:16.813Z,95299.34
2022-11-22T04:52:43.049Z,95296.19
2022-11-22T04:55:09.283Z,95306.56
2022-11-22T04:57:35.528Z,95314.78
2022-11-22T05:00:01.792Z,95320.09
2022-11-22T05:02:28.063Z,95322.75
2022-11-22T05:04:54.315Z,95315.84
2022-11-22T05:07:20.611Z,95327.28
2022-11-22T05:09:46.878Z,95328.09
2022-11-22T05:12:13.126Z,95320.66
2022-11-22T05:14:39.432Z,95330.78
2022-11-22T05:17:05.667Z,95335.28
2022-11-22T05:19:32.225Z,95348.06
2022-11-22T05:21:58.604Z,95347.28
2022-11-22T05:24:24.863Z,95352.59
2022-11-22T05:26:51.115Z,95353.38
2022-11-22T05:29:17.350Z,95360.81
2022-11-22T05:31:49.819Z,95355.25
2022-11-22T05:34:17.573Z,95359.50
2022-11-22T05:36:43.813Z,95357.09
2022-11-22T05:39:10.225Z,95358.44
2022-11-22T05:41:36.489Z,95360.56
2022-11-22T05:44:02.809Z,95362.94
2022-11-22T05:46:29.103Z,95362.91
2022-11-22T05:48:55.341Z,95363.19
2022-11-22T05:51:21.603Z,95366.41
2022-11-22T05:53:47.850Z,95371.94
2022-11-22T05:56:14.112Z,95375.16
2022-11-22T05:58:40.359Z,95370.38
2022-11-22T06:01:06.931Z,95373.56
2022-11-22T06:03:33.335Z,95369.88
2022-11-22T06:05:59.831Z,95365.88
2022-11-22T06:08:26.115Z,95369.06
2022-11-22T06:10:52.369Z,95373.59
2022-11-22T06:13:18.615Z,95376.81
2022-11-22T06:15:44.859Z,95388.50
2022-11-22T06:18:11.130Z,95388.75
2022-11-22T06:20:37.367Z,95393.56
2022-11-22T06:23:03.595Z,95397.00
2022-11-22T06:25:29.829Z,95395.91
2022-11-22T06:27:56.076Z,95395.09
2022-11-22T06:30:22.321Z,95392.44
2022-11-22T06:32:48.575Z,95395.09
2022-11-22T06:35:14.810Z,95410.53
2022-11-22T06:37:41.053Z,95398.59
2022-11-22T06:40:07.289Z,95417.72
2022-11-22T06:42:33.539Z,95416.13
2022-11-22T06:44:59.769Z,95419.06
2022-11-22T06:47:26.011Z,95415.81
2022-11-22T06:49:52.266Z,95414.75
2022-11-22T06:52:18.534Z,95419.59
2022-11-22T06:54:44.768Z,95428.63
2022-11-22T06:57:11.045Z,95425.97
2022-11-22T06:59:37.402Z,95430.50
2022-11-22T07:02:06.604Z,95427.31
2022-11-22T07:04:33.285Z,95422.81
2022-11-22T07:06:59.617Z,95425.75
2022-11-22T07:09:25.845Z,95432.66
2022-11-22T07:11:52.104Z,95433.19
2022-11-22T07:14:18.365Z,95433.72
2022-11-22T07:16:44.609Z,95440.38
2022-11-22T07:19:10.844Z,95428.41
2022-11-22T07:21:37.124Z,95435.31
2022-11-22T07:24:03.489Z,95435.31
2022-11-22T07:26:29.755Z,95441.72
2022-11-22T07:28:56.001Z,95430.00
2022-11-22T07:31:22.381Z,95437.44
2022-11-22T07:33:48.636Z,95432.66
2022-11-22T07:36:14.895Z,95448.06
2022-11-22T07:38:41.158Z,95448.59
2022-11-22T07:41:07.419Z,95452.03
2022-11-22T07:43:33.678Z,95455.19
2022-11-22T07:45:59.962Z,95455.72
2022-11-22T07:48:26.213Z,95474.31
2022-11-22T07:50:52.512Z,95469.00
2022-11-22T07:53:18.768Z,95481.75
2022-11-22T07:55:45.014Z,95486.81
2022-11-22T07:58:11.281Z,95476.38
2022-11-22T08:00:37.536Z,95478.78
2022-11-22T08:03:03.849Z,95478.78
2022-11-22T08:05:30.212Z,95476.13
2022-11-22T08:07:56.522Z,95469.78
2022-11-22T08:10:22.853Z,95475.34
2022-11-22T08:12:49.124Z,95483.34
2022-11-22T08:15:15.458Z,95486.81
2022-11-22T08:17:41.726Z,95486.25
2022-11-22T08:20:07.971Z,95486.50
2022-11-22T08:22:34.238Z,95497.19
2022-11-22T08:25:00.500Z,95495.56
2022-11-22T08:27:26.749Z,95495.00
2022-11-22T08:29:53.025Z,95502.13
2022-11-22T08:32:19.326Z,95501.84
2022-11-22T08:34:47.335Z,95513.63
2022-11-22T08:37:13.835Z,95508.34
2022-11-22T08:39:40.114Z,95509.13
2022-11-22T08:42:06.370Z,95508.88
2022-11-22T08:44:32.619Z,95511.53
2022-11-22T08:46:58.855Z,95510.75
2022-11-22T08:49:25.106Z,95505.75
2022-11-22T08:51:51.340Z,95501.28
2022-11-22T08:54:17.572Z,95516.72
2022-11-22T08:56:43.800Z,95502.53
2022-11-22T08:59:10.175Z,95513.16
2022-11-22T09:01:36.638Z,95506.72
2022-11-22T09:04:02.975Z,95516.88
2022-11-22T09:09:36.470Z,95521.69
2022-11-22T09:12:01.675Z,95528.09
2022-11-22T09:14:27.916Z,95532.63
2022-11-22T09:16:54.184Z,95530.53
2022-11-22T09:19:20.485Z,95544.16
2022-11-22T09:21:46.723Z,95550.75
2022-11-22T09:24:12.964Z,95554.69
2022-11-22T09:26:39.250Z,95544.25
2022-11-22T09:29:05.506Z,95548.47
2022-11-22T09:31:31.744Z,95540.16
2022-11-22T09:33:58.087Z,95551.97
2022-11-22T09:36:24.343Z,95543.47
2022-11-22T09:38:50.621Z,95541.03
2022-11-22T09:41:16.926Z,95542.91
2022-11-22T09:43:43.267Z,95545.38
2022-11-22T09:46:09.528Z,95554.50
2022-11-22T09:48:35.840Z,95556.31
2022-11-22T09:51:02.091Z,95566.91
2022-11-22T09:53:28.367Z,95562.75
2022-11-22T09:55:54.613Z,95559.84
2022-11-22T09:58:20.867Z,95567.00
2022-11-22T10:00:52.036Z,95557.72
2022-11-22T10:03:18.771Z,95557.97
2022-11-22T10:05:45.048Z,95557.38
2022-11-22T10:08:11.304Z,95546.53
2022-11-22T10:10:37.534Z,95554.56
2022-11-22T10:13:03.816Z,95560.38
2022-11-22T10:15:30.082Z,95549.00
2022-11-22T10:17:56.342Z,95557.19
2022-11-22T10:20:22.611Z,95561.06
2022-11-22T10:22:48.897Z,95555.00
2022-11-22T10:25:15.189Z,95540.44
2022-11-22T10:27:41.426Z,95554.78
2022-11-22T10:30:07.700Z,95535.13
2022-11-22T10:32:33.980Z,95534.63
2022-11-22T10:35:00.229Z,95532.75
2022-11-22T10:37:26.484Z,95530.56
2022-11-22T10:39:52.742Z,95520.75
2022-11-22T10:42:18.984Z,95529.22
2022-11-22T10:44:45.213Z,95527.41
2022-11-22T10:47:11.482Z,95525.28
2022-11-22T10:49:37.723Z,95524.50
2022-11-22T10:52:03.972Z,95519.72
2022-11-22T10:54:30.244Z,95508.53
2022-11-22T10:56:56.491Z,95516.81
2022-11-22T10:59:28.381Z,95519.47
2022-11-22T11:01:55.140Z,95509.66
2022-11-22T11:04:21.410Z,95519.28
2022-11-22T11:07:10.956Z,95507.06
2022-11-22T11:10:09.868Z,95507.06
2022-11-22T11:12:20.197Z,95504.94
2022-11-22T11:14:46.463Z,95515.03
2022-11-22T11:17:12.711Z,95499.06
2022-11-22T11:19:38.952Z,95491.63
2022-11-22T11:22:05.185Z,95497.78
2022-11-22T11:24:31.649Z,95499.13
2022-11-22T11:26:58.035Z,95504.19
2022-11-22T11:29:24.265Z,95511.06
2022-11-22T11:31:50.529Z,95515.91
2022-11-22T11:34:16.767Z,95527.31
2022-11-22T11:36:43.117Z,95519.28
2022-11-22T11:39:09.357Z,95510.78
2022-11-22T11:41:41.910Z,95519.53
2022-11-22T11:44:09.605Z,95509.97
2022-11-22T11:46:35.855Z,95507.59
2022-11-22T11:49:02.126Z,95498.28
2022-11-22T11:51:28.392Z,95497.75
2022-11-22T11:53:54.633Z,95491.09
2022-11-22T11:56:20.984Z,95498.31
2022-11-22T11:58:47.228Z,95486.56
2022-11-22T12:01:13.490Z,95489.75
2022-11-22T12:03:39.760Z,95483.38
2022-11-22T12:06:06.052Z,95487.94
2022-11-22T12:08:32.308Z,95482.34
2022-11-22T12:10:58.582Z,95486.03
2022-11-22T12:13:24.833Z,95479.41
2022-11-22T12:15:51.090Z,95486.06
2022-11-22T12:18:17.349Z,95486.34
2022-11-22T12:20:43.605Z,95479.41
2022-11-22T12:23:09.878Z,95478.88
2022-11-22T12:25:36.513Z,95473.28
2022-11-22T12:28:02.951Z,95480.47
2022-11-22T12:30:29.235Z,95473.81
2022-11-22T12:32:55.499Z,95477.00
2022-11-22T12:35:21.760Z,95481.53
2022-11-22T12:37:48.004Z,95486.31
2022-11-22T12:40:14.293Z,95469.28
2022-11-22T12:42:40.579Z,95472.75
2022-11-22T12:45:06.848Z,95481.53
2022-11-22T12:47:33.106Z,95474.63
2022-11-22T12:49:59.358Z,95486.34
2022-11-22T12:52:25.593Z,95488.75
2022-11-22T12:54:51.849Z,95486.06
2022-11-22T12:57:18.181Z,95492.44
2022-11-22T12:59:44.447Z,95492.16
2022-11-22T13:02:10.677Z,95502.50
2022-11-22T13:04:36.917Z,95519.28
2022-11-22T13:07:03.229Z,95492.69
2022-11-22T13:09:29.521Z,95515.03
2022-11-22T13:11:55.784Z,95518.72
2022-11-22T13:14:22.043Z,95512.88
2022-11-22T13:16:48.269Z,95494.00
2022-11-22T13:19:14.546Z,95478.84
2022-11-22T13:21:40.797Z,95482.31
2022-11-22T13:24:07.085Z,95479.63
2022-11-22T13:26:33.324Z,95483.09
2022-11-22T13:28:59.590Z,95471.59
2022-11-22T13:31:25.909Z,95471.56
2022-11-22T13:33:52.167Z,95471.88
2022-11-22T13:36:18.426Z,95470.25
2022-11-22T13:38:44.678Z,95478.25
2022-11-22T13:41:10.939Z,95480.41
2022-11-22T13:43:37.213Z,95474.50
2022-11-22T13:46:03.442Z,95471.28
2022-11-22T13:48:29.696Z,95468.09
2022-11-22T13:50:56.121Z,95464.59
2022-11-22T13:53:22.346Z,95468.63
2022-11-22T13:55:48.619Z,95469.13
2022-11-22T13:58:14.874Z,95478.25
2022-11-22T14:00:41.160Z,95473.47
2022-11-22T14:03:07.438Z,95469.22
2022-11-22T14:05:39.740Z,95476.16
2022-11-22T14:08:07.832Z,95488.69
2022-11-22T14:10:34.073Z,95494.03
2022-11-22T14:13:00.345Z,95491.66
2022-11-22T14:15:26.604Z,95489.00
2022-11-22T14:17:52.876Z,95496.19
2022-11-22T14:20:19.176Z,95505.25
2022-11-22T14:22:45.485Z,95507.38
2022-11-22T14:25:11.944Z,95487.38
2022-11-22T14:27:38.198Z,95489.47
2022-11-22T14:30:04.433Z,95500.13
2022-11-22T14:32:30.682Z,95496.91
2022-11-22T14:34:56.918Z,95494.75
2022-11-22T14:37:23.161Z,95489.97
2022-11-22T14:39:49.419Z,95496.09
2022-11-22T14:42:15.646Z,95494.25
2022-11-22T14:44:41.874Z,95494.25
2022-11-22T14:47:08.115Z,95487.03
2022-11-22T14:49:34.474Z,95492.34
2022-11-22T14:52:00.771Z,95502.50
2022-11-22T14:54:27.012Z,95513.44
2022-11-22T14:56:53.240Z,95510.00
2022-11-22T14:59:19.471Z,95516.69
2022-11-22T15:01:45.763Z,95513.22
2022-11-22T15:09:17.856Z,95509.75
2022-11-22T15:09:18.600Z,95502.56
2022-11-22T15:09:52.478Z,95506.81
2022-11-22T15:12:19.865Z,95515.63
2022-11-22T15:14:46.443Z,95514.31
2022-11-22T15:58:40.253Z,95564.59
2022-11-22T16:01:18.960Z,95571.25
2022-11-22T16:03:46.619Z,95578.16
2022-11-22T16:06:12.855Z,95580.00
2022-11-22T16:08:39.110Z,95586.13
2022-11-22T16:11:05.370Z,95593.03
2022-11-22T16:13:31.763Z,95589.81
2022-11-22T16:15:58.036Z,95589.19
2022-11-22T16:18:24.346Z,95590.53
2022-11-22T16:20:50.632Z,95589.97
2022-11-22T16:23:16.867Z,95585.44
2022-11-22T16:25:43.123Z,95593.16
2022-11-22T16:28:09.489Z,95591.03
2022-11-22T16:30:35.737Z,95589.75
2022-11-22T16:33:01.996Z,95588.97
2022-11-22T16:35:29.818Z,95600.63
2022-11-22T16:37:56.339Z,95592.91
2022-11-22T16:40:22.643Z,95593.69
2022-11-22T16:42:48.904Z,95598.44
2022-11-22T16:45:15.148Z,95595.53
2022-11-22T16:47:41.375Z,95589.25
2022-11-22T16:50:07.639Z,95584.19
2022-11-22T16:52:33.881Z,95582.34
2022-11-22T16:55:00.157Z,95584.75
2022-11-22T16:57:26.390Z,95585.78
2022-11-22T16:59:52.629Z,95579.66
2022-11-22T17:02:18.872Z,95587.38
2022-11-22T17:04:45.116Z,95592.19
2022-11-22T17:07:11.477Z,95605.22
2022-11-22T17:09:37.808Z,95596.16
2022-11-22T17:12:04.060Z,95605.47
2022-11-22T17:14:30.630Z,95604.41
2022-11-22T17:16:57.050Z,95601.72
2022-11-22T17:19:51.424Z,95598.47
2022-11-22T17:22:09.578Z,95594.75
2022-11-22T17:24:35.821Z,95597.91
2022-11-22T17:27:02.056Z,95591.84
2022-11-22T17:29:49.349Z,95593.19
2022-11-22T17:32:14.611Z,95597.75
2022-11-22T17:34:40.889Z,95588.19
2022-11-22T17:37:07.134Z,95593.78
2022-11-22T17:39:33.762Z,95605.22
2022-11-22T17:42:00.148Z,95613.50
2022-11-22T17:44:26.408Z,95615.91
2022-11-22T17:46:52.665Z,95615.94
2022-11-22T17:49:18.913Z,95618.88
2022-11-22T17:51:45.168Z,95612.22
2022-11-22T17:54:11.426Z,95616.44
2022-11-22T17:56:37.743Z,95624.16
2022-11-22T17:59:04.006Z,95623.06
2022-11-22T18:01:30.290Z,95628.38
2022-11-22T18:03:56.530Z,95628.09
2022-11-22T18:06:22.773Z,95631.53
2022-11-22T18:08:49.040Z,95629.88
2022-11-22T18:11:15.308Z,95645.25
2022-11-22T18:13:41.563Z,95638.84
2022-11-22T18:16:07.816Z,95650.19
2022-11-22T18:18:55.747Z,95643.78
2022-11-22T18:21:20.300Z,95647.31
2022-11-22T18:23:46.566Z,95656.56
2022-11-22T18:29:35.165Z,95655.19
2022-11-22T18:31:52.091Z,95645.06
2022-11-22T18:34:19.163Z,95651.00
2022-11-22T18:37:03.140Z,95644.34
2022-11-22T18:39:30.864Z,95646.78
2022-11-22T18:41:57.508Z,95648.16
2022-11-22T18:44:23.764Z,95645.97
2022-11-22T18:46:50.000Z,95651.25
2022-11-22T18:49:16.279Z,95654.69
2022-11-22T18:51:42.538Z,95654.13
2022-11-22T18:54:08.782Z,95653.59
2022-11-22T18:56:35.056Z,95654.47
2022-11-22T18:59:01.303Z,95662.97
2022-11-22T19:01:27.599Z,95667.94
2022-11-22T19:03:53.935Z,95669.63
2022-11-22T19:06:20.202Z,95671.47
2022-11-22T19:08:46.473Z,95676.22
2022-11-22T19:11:12.781Z,95667.78
2022-11-22T19:13:39.035Z,95673.94
2022-11-22T19:16:05.365Z,95669.44
2022-11-22T19:18:35.719Z,95660.19
2022-11-22T19:21:02.853Z,95664.50
2022-11-22T19:23:29.148Z,95663.97
2022-11-22T19:25:55.452Z,95672.72
2022-11-22T19:28:21.749Z,95670.66
2022-11-22T19:30:47.988Z,95666.66
2022-11-22T19:33:14.245Z,95681.53
2022-11-22T19:35:40.485Z,95692.19
2022-11-22T19:38:06.730Z,95682.56
2022-11-22T19:40:32.994Z,95685.72
2022-11-22T19:42:59.271Z,95678.28
2022-11-22T19:45:25.517Z,95668.38
2022-11-22T19:47:51.754Z,95678.03
2022-11-22T19:50:18.019Z,95678.19
2022-11-22T19:52:44.279Z,95672.31
2022-11-22T19:55:10.540Z,95680.81
2022-11-22T19:57:36.785Z,95679.66
2022-11-22T20:00:03.036Z,95677.00
2022-11-22T20:02:29.282Z,95677.09
2022-11-22T20:04:55.558Z,95665.94
2022-11-22T20:07:21.837Z,95670.16
2022-11-22T20:09:48.141Z,95668.34
2022-11-22T20:12:14.384Z,95666.47
2022-11-22T20:14:40.630Z,95665.19
2022-11-22T20:17:06.883Z,95673.47
2022-11-22T20:19:34.635Z,95682.03
2022-11-22T20:22:01.000Z,95680.47
2022-11-22T20:24:27.291Z,95681.97
2022-11-22T20:26:53.569Z,95685.13
2022-11-22T20:29:19.826Z,95686.78
2022-11-22T20:31:46.089Z,95682.22
2022-11-22T20:34:12.364Z,95686.50
2022-11-22T20:36:38.642Z,95674.75
2022-11-22T20:39:09.849Z,95681.44
2022-11-22T20:41:36.795Z,95678.44
2022-11-22T20:44:03.107Z,95682.66
2022-11-22T20:46:29.410Z,95685.56
2022-11-22T20:48:55.757Z,95681.31
2022-11-22T20:51:22.048Z,95688.19
2022-11-22T20:53:48.294Z,95688.72
2022-11-22T20:56:14.628Z,95692.72
2022-11-22T20:58:40.919Z,95696.44
2022-11-22T21:01:07.306Z,95691.63
2022-11-22T21:03:33.768Z,95695.09
2022-11-22T21:06:00.273Z,95694.03
2022-11-22T21:08:26.502Z,95699.34
2022-11-22T21:10:52.756Z,95700.19
2022-11-22T21:13:19.098Z,95696.47
2022-11-22T21:15:45.335Z,95702.34
2022-11-22T21:18:25.205Z,95707.94
2022-11-22T21:20:51.973Z,95709.00
2022-11-22T21:23:18.215Z,95709.81
2022-11-22T21:25:44.470Z,95707.94
2022-11-22T21:28:10.723Z,95707.44
2022-11-22T21:30:37.041Z,95707.69
2022-11-22T21:33:03.337Z,95708.75
2022-11-22T21:35:29.592Z,95707.41
2022-11-22T21:37:55.843Z,95709.00
2022-11-22T21:40:22.077Z,95706.59
2022-11-22T21:42:48.348Z,95710.81
2022-11-22T21:45:14.698Z,95707.38
2022-11-22T21:47:41.019Z,95695.66
2022-11-22T21:50:11.438Z,95696.22
2022-11-22T21:52:38.150Z,95704.16
2022-11-22T21:55:04.455Z,95703.59
2022-11-22T21:57:30.713Z,95701.00
2022-11-22T21:59:57.017Z,95704.44
2022-11-22T22:02:23.258Z,95703.41
2022-11-22T22:04:49.545Z,95693.81
2022-11-22T22:07:36.687Z,95690.63
2022-11-22T22:10:02.066Z,95698.31
2022-11-22T22:12:28.325Z,95688.25
2022-11-22T22:14:54.595Z,95690.38
2022-11-22T22:17:20.961Z,95692.47
2022-11-22T22:19:47.198Z,95694.06
2022-11-22T22:22:13.452Z,95696.22
2022-11-22T22:24:39.728Z,95695.44
2022-11-22T22:27:06.010Z,95701.28
2022-11-22T22:29:32.713Z,95695.72
2022-11-22T22:31:59.323Z,95694.09
2022-11-22T22:34:25.727Z,95700.31
2022-11-22T22:36:52.034Z,95693.13
2022-11-22T22:39:18.304Z,95691.56
2022-11-22T22:41:44.586Z,95697.94
2022-11-22T22:44:11.016Z,95696.06
2022-11-22T22:46:37.281Z,95686.22
2022-11-22T22:49:03.548Z,95692.53
2022-11-22T22:51:32.759Z,95697.81
2022-11-22T22:53:59.677Z,95694.09
2022-11-22T22:56:25.966Z,95695.66
2022-11-22T22:58:52.278Z,95695.41
2022-11-22T23:01:18.529Z,95697.56
2022-11-22T23:03:44.767Z,95698.25
2022-11-22T23:06:11.024Z,95694.66
2022-11-22T23:08:37.259Z,95697.34
2022-11-22T23:11:03.494Z,95698.44
2022-11-22T23:13:29.761Z,95700.56
2022-11-22T23:15:58.655Z,95698.69
2022-11-22T23:18:25.156Z,95697.88
2022-11-22T23:20:51.409Z,95700.50
2022-11-22T23:23:17.682Z,95694.69
2022-11-22T23:25:43.948Z,95695.44
2022-11-22T23:28:10.245Z,95691.47
2022-11-22T23:30:36.477Z,95685.09
2022-11-22T23:33:02.729Z,95683.25
2022-11-22T23:35:28.994Z,95683.75
2022-11-22T23:37:55.282Z,95685.34
2022-11-22T23:40:21.600Z,95685.63
2022-11-22T23:42:47.858Z,95685.63
2022-11-22T23:45:14.132Z,95682.66
2022-11-22T23:47:40.371Z,95690.63
2022-11-22T23:50:06.629Z,95684.78
2022-11-22T23:52:32.904Z,95685.56
2022-11-22T23:54:59.182Z,95681.84
2022-11-22T23:57:25.454Z,95680.00
2022-11-22T23:59:51.726Z,95681.31
